Hammil Valley, California
Current Conditions -  °F | °C
As of 10:56 PM on Friday 24 Oct 2014 (Local Time) from KBIH Reporting Station
Clear Clear  
Wind Chill: 70°   Ceiling: Unl
Heat Index: 70°   Visibility: 10mi
Dew Point: 22°   Wind: 21mph
Humidity: 16%   Direction: 160°SSE
Pressure: 30"   Gusts: 30mph
Location:  37.4772°N, 118.401°W
Report Text: KBIH 250556Z AUTO 16018G26KT 10SM CLR 21/M06 A3000 RMK AO2 PK WND 17031/0457 SLP117 T02111056 10272 20211 51006
Loading
Personal Weather Stations






























Interactive Weather Map
Tropical Storm Tracking
New forecast layout! Learn more

10-Day Weather Forecast

Advertisements
Track Severe Weather on mobile